createdAt,value
2022-07-25T05:01:50.060Z,2.70
2022-07-25T05:04:29.624Z,2.90
2022-07-25T05:07:06.933Z,2.70
2022-07-25T05:09:40.582Z,2.80
2022-07-25T05:12:18.762Z,2.80
2022-07-25T05:14:54.421Z,3.10
2022-07-25T05:17:27.243Z,2.70
2022-07-25T05:20:00.943Z,2.80
2022-07-25T05:22:45.923Z,2.80
2022-07-25T05:25:23.381Z,2.40
2022-07-25T05:28:08.186Z,2.50
2022-07-25T05:30:47.724Z,2.50
2022-07-25T05:33:21.711Z,2.60
2022-07-25T05:35:59.213Z,2.90
2022-07-25T05:38:39.245Z,2.50
2022-07-25T05:41:19.415Z,2.50
2022-07-25T05:43:57.313Z,2.70
2022-07-25T05:46:38.633Z,2.20
2022-07-25T05:49:15.675Z,2.50
2022-07-25T05:51:59.513Z,2.00
2022-07-25T05:54:32.450Z,2.10
2022-07-25T05:57:24.432Z,2.50
2022-07-25T05:59:55.489Z,2.30
2022-07-25T06:02:35.249Z,2.80
2022-07-25T06:05:10.981Z,2.60
2022-07-25T06:07:48.242Z,2.40
2022-07-25T06:10:33.541Z,1.90
2022-07-25T06:13:14.822Z,2.20
2022-07-25T06:15:57.525Z,2.60
2022-07-25T06:18:33.842Z,2.80
2022-07-25T06:21:05.901Z,1.70
2022-07-25T06:23:39.163Z,2.30
2022-07-25T06:26:20.553Z,2.20
2022-07-25T06:29:01.412Z,2.20
2022-07-25T06:31:39.761Z,2.10
2022-07-25T06:34:17.552Z,2.20
2022-07-25T06:36:51.365Z,2.30
2022-07-25T06:39:30.313Z,2.10
2022-07-25T06:45:08.870Z,2.60
2022-07-25T06:47:52.312Z,1.90
2022-07-25T06:50:28.369Z,2.30
2022-07-25T06:53:04.457Z,2.30
2022-07-25T06:55:39.681Z,2.10
2022-07-25T06:58:19.560Z,2.00
2022-07-25T07:01:00.079Z,2.30
2022-07-25T07:03:43.851Z,2.00
2022-07-25T07:06:16.944Z,2.90
2022-07-25T07:08:55.381Z,2.40
2022-07-25T07:11:30.892Z,1.80
2022-07-25T07:14:08.090Z,1.90
2022-07-25T07:16:42.870Z,2.40
2022-07-25T07:19:21.201Z,2.30
2022-07-25T07:21:59.525Z,1.70
2022-07-25T07:24:38.792Z,2.00
2022-07-25T07:27:25.723Z,1.80
2022-07-25T07:29:57.901Z,1.60
2022-07-25T07:32:34.081Z,1.80
2022-07-25T07:35:08.470Z,1.60
2022-07-25T07:37:43.842Z,1.90
2022-07-25T07:40:21.952Z,1.70
2022-07-25T07:42:59.952Z,2.20
2022-07-25T07:45:37.462Z,1.90
2022-07-25T07:48:17.870Z,2.00
2022-07-25T07:50:59.520Z,1.40
2022-07-25T07:53:50.129Z,1.80
2022-07-25T07:56:32.196Z,1.80
2022-07-25T07:59:12.473Z,1.60
2022-07-25T08:01:49.045Z,1.30
2022-07-25T08:04:20.362Z,1.70
2022-07-25T08:06:55.550Z,1.90
2022-07-25T08:09:29.053Z,1.70
2022-07-25T08:12:02.262Z,1.60
2022-07-25T08:14:48.081Z,1.90
2022-07-25T08:17:30.126Z,1.60
2022-07-25T08:20:38.396Z,1.50
2022-07-25T08:23:15.442Z,1.30
2022-07-25T08:25:54.421Z,1.70
2022-07-25T08:28:30.960Z,1.40
2022-07-25T08:31:14.731Z,1.60
2022-07-25T08:33:51.104Z,1.40
2022-07-25T08:36:24.222Z,1.40
2022-07-25T08:38:58.553Z,1.40
2022-07-25T08:41:36.735Z,1.30
2022-07-25T08:44:20.219Z,1.50
2022-07-25T08:47:03.650Z,1.20
2022-07-25T08:49:45.370Z,1.40
2022-07-25T08:52:22.982Z,1.50
2022-07-25T08:55:11.214Z,1.60
2022-07-25T08:57:47.267Z,1.30
2022-07-25T09:00:33.472Z,1.60
2022-07-25T09:03:10.905Z,1.50
2022-07-25T09:05:52.283Z,1.60
2022-07-25T09:08:31.042Z,1.50
2022-07-25T09:11:07.895Z,1.50
2022-07-25T09:13:41.499Z,1.20
2022-07-25T09:16:13.420Z,1.60
2022-07-25T09:18:47.953Z,1.30
2022-07-25T09:21:20.583Z,1.40
2022-07-25T09:24:16.969Z,1.60
2022-07-25T09:26:55.424Z,1.50
2022-07-25T09:29:34.145Z,1.20
2022-07-25T09:32:29.380Z,1.40
2022-07-25T09:35:13.161Z,1.40
2022-07-25T09:37:51.941Z,1.40
2022-07-25T09:40:33.831Z,1.50
2022-07-25T09:43:08.213Z,1.60
2022-07-25T09:45:55.268Z,1.50
2022-07-25T09:48:39.239Z,1.40
2022-07-25T09:51:11.460Z,1.70
2022-07-25T09:53:50.701Z,1.30
2022-07-25T09:56:22.101Z,1.40
2022-07-25T09:59:04.852Z,1.50
2022-07-25T10:01:44.133Z,1.40
2022-07-25T10:04:33.921Z,1.40
2022-07-25T10:07:18.653Z,1.50
2022-07-25T10:10:05.789Z,1.10
2022-07-25T10:12:39.141Z,1.30
2022-07-25T10:15:27.298Z,1.20
2022-07-25T10:18:12.940Z,1.20
2022-07-25T10:20:49.782Z,1.40
2022-07-25T10:23:31.670Z,1.40
2022-07-25T10:26:22.933Z,1.40
2022-07-25T10:29:03.222Z,1.40
2022-07-25T10:31:36.860Z,1.60
2022-07-25T10:34:37.421Z,1.70
2022-07-25T10:37:31.133Z,1.40
2022-07-25T10:40:07.283Z,1.40
2022-07-25T10:42:49.613Z,1.40
2022-07-25T10:45:24.122Z,1.60
2022-07-25T10:48:07.366Z,1.40
2022-07-25T10:51:11.292Z,1.10
2022-07-25T10:53:52.312Z,1.50
2022-07-25T10:56:37.811Z,1.50
2022-07-25T10:59:32.670Z,1.60
2022-07-25T11:02:17.507Z,1.40
2022-07-25T11:05:04.056Z,1.30
2022-07-25T11:07:41.360Z,1.20
2022-07-25T11:10:18.505Z,1.60
2022-07-25T11:12:56.633Z,1.40
2022-07-25T11:15:34.381Z,1.40
2022-07-25T11:18:19.940Z,1.60
2022-07-25T11:21:15.184Z,1.40
2022-07-25T11:24:05.252Z,1.50
2022-07-25T11:27:06.105Z,1.40
2022-07-25T11:29:50.893Z,1.60
2022-07-25T11:32:30.740Z,1.40
2022-07-25T11:35:13.930Z,1.60
2022-07-25T11:37:53.779Z,1.40
2022-07-25T11:40:28.013Z,1.50
2022-07-25T11:43:01.529Z,1.20
2022-07-25T11:45:40.323Z,1.30
2022-07-25T11:48:19.054Z,1.40
2022-07-25T11:51:03.421Z,1.40
2022-07-25T11:53:57.493Z,1.20
2022-07-25T11:56:42.887Z,1.30
2022-07-25T11:59:21.917Z,1.60
2022-07-25T12:02:05.682Z,1.40
2022-07-25T12:04:41.822Z,1.40
2022-07-25T12:07:22.892Z,1.50
2022-07-25T12:10:03.662Z,1.30
2022-07-25T12:12:58.341Z,1.40
2022-07-25T12:15:46.672Z,1.40
2022-07-25T12:18:26.080Z,1.80
2022-07-25T12:21:03.222Z,1.20
2022-07-25T12:23:39.534Z,1.40
2022-07-25T12:26:22.977Z,1.30
2022-07-25T12:29:04.692Z,1.50
2022-07-25T12:31:45.713Z,1.60
2022-07-25T12:34:19.834Z,1.20
2022-07-25T12:36:57.342Z,1.30
2022-07-25T12:39:31.214Z,1.40
2022-07-25T12:42:09.393Z,1.40
2022-07-25T12:44:46.221Z,1.60
2022-07-25T12:47:18.541Z,1.70
2022-07-25T12:49:52.512Z,1.50
2022-07-25T12:52:32.432Z,1.40
2022-07-25T12:55:23.081Z,1.40
2022-07-25T12:57:53.382Z,1.90
2022-07-25T13:00:27.953Z,1.60
2022-07-25T13:03:04.979Z,1.40
2022-07-25T13:05:43.843Z,1.80
2022-07-25T13:08:19.739Z,1.90
2022-07-25T13:11:05.690Z,1.80
2022-07-25T13:13:42.999Z,1.40
2022-07-25T13:16:16.584Z,1.60
2022-07-25T13:18:50.551Z,1.30
2022-07-25T13:21:31.723Z,1.20
2022-07-25T13:24:09.754Z,1.20
2022-07-25T13:26:45.293Z,1.70
2022-07-25T13:29:21.502Z,1.40
2022-07-25T13:32:01.829Z,1.80
2022-07-25T13:34:38.653Z,1.40
2022-07-25T13:37:21.814Z,1.40
2022-07-25T13:39:54.778Z,1.40
2022-07-25T13:42:33.781Z,1.50
2022-07-25T13:45:10.212Z,1.50
2022-07-25T13:47:52.899Z,1.50
2022-07-25T13:50:49.559Z,1.60
2022-07-25T13:53:35.702Z,1.60
2022-07-25T13:56:15.631Z,1.20
2022-07-25T13:58:49.553Z,1.40
2022-07-25T14:01:51.773Z,1.30
2022-07-25T14:04:25.301Z,1.80
2022-07-25T14:06:59.090Z,1.80
2022-07-25T14:09:30.770Z,1.30
2022-07-25T14:12:05.369Z,1.40
2022-07-25T14:14:41.982Z,1.40
2022-07-25T14:17:15.053Z,1.40
2022-07-25T14:19:56.593Z,1.60
2022-07-25T14:22:32.150Z,1.50
2022-07-25T14:25:05.480Z,1.30
2022-07-25T14:27:44.593Z,1.70
2022-07-25T14:30:23.855Z,1.60
2022-07-25T14:33:04.306Z,1.40
2022-07-25T14:35:42.833Z,1.40
2022-07-25T14:38:23.183Z,1.60
2022-07-25T14:41:01.267Z,1.30
2022-07-25T14:43:44.761Z,1.50
2022-07-25T14:46:18.805Z,1.40
2022-07-25T14:48:59.187Z,1.40
2022-07-25T14:51:51.020Z,1.40
2022-07-25T14:54:37.954Z,1.40
2022-07-25T14:57:14.610Z,1.30
2022-07-25T14:59:49.802Z,1.10
2022-07-25T15:02:24.964Z,1.10
2022-07-25T15:04:57.987Z,1.20
2022-07-25T15:07:34.873Z,1.30
2022-07-25T15:10:14.079Z,1.00
2022-07-25T15:13:13.961Z,1.30
2022-07-25T15:15:53.780Z,1.30
2022-07-25T15:18:27.042Z,1.20
2022-07-25T15:21:01.862Z,1.30
2022-07-25T15:23:39.712Z,1.30
2022-07-25T15:26:14.654Z,1.30
2022-07-25T15:28:46.401Z,1.60
2022-07-25T15:31:24.427Z,1.30
2022-07-25T15:34:01.592Z,1.20
2022-07-25T15:36:34.906Z,1.10
2022-07-25T15:39:22.384Z,1.00
2022-07-25T15:41:56.430Z,1.20
2022-07-25T15:44:29.124Z,1.30
2022-07-25T15:47:07.348Z,1.30
2022-07-25T15:49:44.982Z,1.20
2022-07-25T15:52:24.460Z,1.20
2022-07-25T15:55:00.792Z,1.30
2022-07-25T15:57:36.802Z,1.70
2022-07-25T16:00:19.416Z,1.40
2022-07-25T16:02:58.996Z,1.10
2022-07-25T16:05:40.099Z,1.40
2022-07-25T16:08:18.034Z,1.10
2022-07-25T16:10:55.142Z,1.90
2022-07-25T16:13:30.269Z,1.30
2022-07-25T16:16:11.677Z,1.20
2022-07-25T16:18:57.513Z,1.50
2022-07-25T16:21:33.952Z,1.20
2022-07-25T16:24:26.740Z,1.60
2022-07-25T16:27:05.479Z,1.40
2022-07-25T16:29:45.299Z,1.30
2022-07-25T16:32:21.523Z,1.70
2022-07-25T16:34:57.614Z,1.30
2022-07-25T16:37:32.441Z,1.40
2022-07-25T16:40:15.481Z,1.30
2022-07-25T16:42:51.253Z,1.40
2022-07-25T16:45:31.160Z,1.40
2022-07-25T16:48:13.888Z,1.40
2022-07-25T16:50:51.203Z,1.60
2022-07-25T16:53:29.382Z,1.40
2022-07-25T16:56:02.121Z,1.30
2022-07-25T16:58:40.081Z,1.40
2022-07-25T17:01:19.508Z,1.60
2022-07-25T17:04:01.204Z,1.60
2022-07-25T17:06:34.774Z,1.50
2022-07-25T17:09:20.362Z,1.40
2022-07-25T17:11:52.394Z,1.70
2022-07-25T17:14:30.232Z,1.50
2022-07-25T17:17:12.176Z,1.40
2022-07-25T17:19:44.038Z,1.40
2022-07-25T17:22:20.631Z,1.40
2022-07-25T17:24:59.033Z,1.60
2022-07-25T17:27:37.762Z,1.40
2022-07-25T17:30:13.562Z,1.50
2022-07-25T17:32:48.441Z,1.70
2022-07-25T17:35:22.993Z,1.30
2022-07-25T17:38:01.075Z,1.40
2022-07-25T17:40:47.275Z,2.00
2022-07-25T17:43:27.824Z,1.30
2022-07-25T17:46:12.069Z,1.40
2022-07-25T17:48:52.392Z,1.60
2022-07-25T17:51:29.406Z,1.80
2022-07-25T17:54:17.262Z,1.70
2022-07-25T17:56:50.234Z,1.20
2022-07-25T17:59:26.973Z,1.30
2022-07-25T18:02:12.155Z,1.40
2022-07-25T18:04:50.633Z,1.70
2022-07-25T18:07:27.752Z,1.20
2022-07-25T18:10:03.710Z,1.20
2022-07-25T18:12:41.481Z,1.70
2022-07-25T18:15:20.954Z,1.40
2022-07-25T18:17:55.290Z,1.50
2022-07-25T18:20:32.893Z,1.60
2022-07-25T18:23:08.922Z,1.30
2022-07-25T18:25:52.566Z,1.70
2022-07-25T18:28:40.173Z,1.50
2022-07-25T18:31:19.928Z,1.50
2022-07-25T18:33:57.893Z,1.80
2022-07-25T18:36:33.066Z,1.90
2022-07-25T18:39:15.082Z,1.70
2022-07-25T18:42:04.812Z,1.70
2022-07-25T18:44:41.221Z,1.80
2022-07-25T18:47:32.030Z,2.00
2022-07-25T18:50:11.842Z,1.80
2022-07-25T18:52:50.912Z,1.60
2022-07-25T18:55:33.382Z,2.00
2022-07-25T18:58:09.834Z,1.50
2022-07-25T19:00:49.134Z,1.60
2022-07-25T19:03:25.494Z,1.60
2022-07-25T19:06:03.201Z,2.20
2022-07-25T19:08:43.922Z,1.90
2022-07-25T19:11:26.183Z,2.10
2022-07-25T19:14:06.420Z,2.10
2022-07-25T19:16:43.183Z,2.00
2022-07-25T19:19:17.460Z,1.70
2022-07-25T19:21:52.160Z,2.00
2022-07-25T19:24:32.770Z,2.10
2022-07-25T19:27:10.677Z,1.90
2022-07-25T19:29:47.353Z,2.00
2022-07-25T19:32:26.532Z,2.10
2022-07-25T19:34:59.184Z,1.90
2022-07-25T19:37:36.964Z,2.00
2022-07-25T19:40:21.877Z,2.30
2022-07-25T19:42:59.342Z,2.00
2022-07-25T19:45:42.193Z,2.00
2022-07-25T19:48:19.872Z,2.40
2022-07-25T19:50:56.232Z,1.90
2022-07-25T19:53:31.279Z,2.50
2022-07-25T19:56:10.460Z,2.60
2022-07-25T19:58:43.802Z,2.10
2022-07-25T20:01:22.080Z,2.20
2022-07-25T20:03:59.546Z,2.00
2022-07-25T20:06:40.541Z,2.20
2022-07-25T20:09:12.883Z,2.30
2022-07-25T20:11:49.616Z,2.30
2022-07-25T20:14:31.239Z,2.20
2022-07-25T20:17:10.662Z,2.10
2022-07-25T20:19:46.238Z,2.40
2022-07-25T20:22:29.491Z,2.50
2022-07-25T20:25:04.110Z,2.20
2022-07-25T20:27:44.591Z,2.20
2022-07-25T20:30:29.343Z,2.10
2022-07-25T20:33:09.222Z,2.60
2022-07-25T20:35:42.818Z,2.20
2022-07-25T20:38:18.493Z,2.30
2022-07-25T20:40:54.706Z,2.60
2022-07-25T20:43:30.301Z,2.80
2022-07-25T20:46:13.099Z,2.70
2022-07-25T20:48:51.001Z,2.40
2022-07-25T20:51:24.113Z,2.30
2022-07-25T20:53:58.875Z,2.20
2022-07-25T20:56:36.363Z,2.40
2022-07-25T20:59:17.319Z,2.30
2022-07-25T21:01:55.790Z,2.60
2022-07-25T21:04:33.603Z,2.60
2022-07-25T21:07:06.062Z,2.50
2022-07-25T21:09:40.984Z,2.60
2022-07-25T21:12:17.929Z,2.40
2022-07-25T21:14:48.452Z,2.50
2022-07-25T21:17:20.703Z,2.90
2022-07-25T21:19:57.623Z,2.10
2022-07-25T21:22:34.621Z,2.60
2022-07-25T21:25:10.944Z,2.20
2022-07-25T21:27:45.062Z,2.40
2022-07-25T21:30:23.473Z,2.20
2022-07-25T21:33:03.713Z,2.00
2022-07-25T21:35:53.241Z,2.40
2022-07-25T21:38:34.885Z,2.40
2022-07-25T21:41:13.960Z,2.60
2022-07-25T21:43:53.573Z,2.40
2022-07-25T21:46:32.741Z,2.70
2022-07-25T21:49:41.843Z,2.50
2022-07-25T21:52:30.316Z,2.50
2022-07-25T21:55:13.162Z,2.60
2022-07-25T21:57:54.332Z,2.80
